createdAt,value
2018-01-28T00:02:28.884Z,20.13
2018-01-28T00:04:58.802Z,21.20
2018-01-28T00:07:29.123Z,16.67
2018-01-28T00:09:59.037Z,16.00
2018-01-28T00:12:28.901Z,10.63
2018-01-28T00:14:59.274Z,12.50
2018-01-28T00:17:29.171Z,12.70
2018-01-28T00:19:59.307Z,17.17
2018-01-28T00:22:29.426Z,13.50
2018-01-28T00:24:59.089Z,16.80
2018-01-28T00:27:29.084Z,13.77
2018-01-28T00:29:58.965Z,18.77
2018-01-28T00:32:29.084Z,19.70
2018-01-28T00:34:59.202Z,22.43
2018-01-28T00:37:29.123Z,11.87
2018-01-28T00:39:58.833Z,14.73
2018-01-28T00:42:28.741Z,17.87
2018-01-28T00:44:58.593Z,11.30
2018-01-28T00:47:28.569Z,16.53
2018-01-28T00:49:58.282Z,12.80
2018-01-28T00:52:28.969Z,18.40
2018-01-28T00:54:58.721Z,17.27
2018-01-28T00:57:28.588Z,11.90
2018-01-28T00:59:58.346Z,9.50
2018-01-28T01:02:28.055Z,8.60
2018-01-28T01:04:57.970Z,10.50
2018-01-28T01:07:29.679Z,9.90
2018-01-28T01:13:33.043Z,30.10
2018-01-28T01:16:02.755Z,30.50
2018-01-28T01:18:32.642Z,42.73
2018-01-28T01:21:02.376Z,39.43
2018-01-28T01:23:32.291Z,18.83
2018-01-28T01:26:02.000Z,33.27
2018-01-28T01:28:33.348Z,43.57
2018-01-28T01:31:03.058Z,31.27
2018-01-28T01:33:32.971Z,29.27
2018-01-28T01:36:02.855Z,32.60
2018-01-28T01:38:32.749Z,29.80
2018-01-28T01:41:02.469Z,25.93
2018-01-28T01:43:32.219Z,28.97
2018-01-28T01:46:02.145Z,40.03
2018-01-28T01:48:32.458Z,45.17
2018-01-28T01:51:02.321Z,39.70
2018-01-28T01:53:32.537Z,34.87
2018-01-28T01:56:02.201Z,38.47
2018-01-28T01:58:32.041Z,32.77
2018-01-28T02:01:02.644Z,35.80
2018-01-28T02:03:32.967Z,36.17
2018-01-28T02:06:03.499Z,34.57
2018-01-28T02:08:33.411Z,59.47
2018-01-28T02:11:04.786Z,41.20
2018-01-28T02:13:34.756Z,51.53
2018-01-28T02:16:04.947Z,61.93
2018-01-28T02:18:34.653Z,53.37
2018-01-28T02:21:04.422Z,56.90
2018-01-28T02:23:35.618Z,66.43
2018-01-28T02:26:05.473Z,41.40
2018-01-28T02:28:37.025Z,44.10
2018-01-28T02:31:06.739Z,51.50
2018-01-28T02:33:36.652Z,44.17
2018-01-28T02:36:06.360Z,31.57
2018-01-28T02:38:37.706Z,35.60
2018-01-28T02:41:07.415Z,48.17
2018-01-28T02:43:37.256Z,47.63
2018-01-28T02:46:07.804Z,41.40
2018-01-28T02:48:37.569Z,52.07
2018-01-28T02:51:07.424Z,52.63
2018-01-28T02:53:37.195Z,31.93
2018-01-28T02:56:06.902Z,32.17
2018-01-28T02:58:36.616Z,48.20
2018-01-28T03:01:06.732Z,41.27
2018-01-28T03:03:38.282Z,53.07
2018-01-28T03:06:07.991Z,40.67
2018-01-28T03:08:37.704Z,32.40
2018-01-28T03:11:07.412Z,50.93
2018-01-28T03:13:37.120Z,44.60
2018-01-28T03:16:07.239Z,37.80
2018-01-28T03:18:36.948Z,35.30
2018-01-28T03:21:06.657Z,45.50
2018-01-28T03:23:36.370Z,40.90
2018-01-28T03:26:06.283Z,37.67
2018-01-28T03:28:35.991Z,42.70
2018-01-28T03:31:05.910Z,52.60
2018-01-28T03:33:35.617Z,49.00
2018-01-28T03:36:05.326Z,53.07
2018-01-28T03:38:35.244Z,55.83
2018-01-28T03:41:04.951Z,57.90
2018-01-28T03:43:34.657Z,54.63
2018-01-28T03:46:04.374Z,33.47
2018-01-28T03:48:35.716Z,53.40
2018-01-28T03:51:05.427Z,37.27
2018-01-28T03:53:35.136Z,39.23
2018-01-28T03:56:05.048Z,51.17
2018-01-28T03:58:34.758Z,50.93
2018-01-28T04:01:04.476Z,40.77
2018-01-28T04:03:34.176Z,55.73
2018-01-28T04:06:04.091Z,47.50
2018-01-28T04:08:34.005Z,44.20
2018-01-28T04:11:03.715Z,40.37
2018-01-28T04:13:33.423Z,44.10
2018-01-28T04:16:09.687Z,46.43
2018-01-28T04:18:39.397Z,46.17
2018-01-28T04:21:10.546Z,50.77
2018-01-28T04:23:42.093Z,37.83
2018-01-28T04:26:11.775Z,47.30
2018-01-28T04:28:41.511Z,50.93
2018-01-28T04:31:12.860Z,49.00
2018-01-28T04:33:44.002Z,37.73
2018-01-28T04:36:14.123Z,48.13
2018-01-28T04:38:43.830Z,46.00
2018-01-28T04:41:13.949Z,40.27
2018-01-28T04:43:43.659Z,62.33
2018-01-28T04:46:13.572Z,50.33
2018-01-28T04:48:43.344Z,39.13
2018-01-28T04:51:13.607Z,41.70
2018-01-28T04:53:43.316Z,46.70
2018-01-28T04:56:13.040Z,48.23
2018-01-28T04:58:43.553Z,52.03
2018-01-28T05:01:13.468Z,47.17
2018-01-28T05:03:43.432Z,56.73
2018-01-28T05:06:13.095Z,52.73
2018-01-28T05:08:42.801Z,49.97
2018-01-28T05:11:12.715Z,53.73
2018-01-28T05:13:42.424Z,67.93
2018-01-28T05:16:12.135Z,44.53
2018-01-28T05:18:43.687Z,49.10
2018-01-28T05:21:13.752Z,49.40
2018-01-28T05:23:43.863Z,57.43
2018-01-28T05:26:13.841Z,53.03
2018-01-28T05:28:45.394Z,45.17
2018-01-28T05:31:16.741Z,35.90
2018-01-28T05:33:46.451Z,39.50
2018-01-28T05:36:16.159Z,54.27
2018-01-28T05:38:45.869Z,44.23
2018-01-28T05:41:15.578Z,47.70
2018-01-28T05:43:45.289Z,34.50
2018-01-28T05:46:15.408Z,50.67
2018-01-28T05:48:45.116Z,61.13
2018-01-28T05:51:16.668Z,63.07
2018-01-28T05:53:46.993Z,56.37
2018-01-28T05:56:16.706Z,44.63
2018-01-28T05:58:46.414Z,59.50
2018-01-28T06:01:17.554Z,59.17
2018-01-28T06:03:48.903Z,47.77
2018-01-28T06:06:18.612Z,61.27
2018-01-28T06:08:48.325Z,55.37
2018-01-28T06:11:18.394Z,50.47
2018-01-28T06:13:48.150Z,53.77
2018-01-28T06:16:19.502Z,57.37
2018-01-28T06:18:49.208Z,52.27
2018-01-28T06:21:19.122Z,59.43
2018-01-28T06:23:50.470Z,56.00
2018-01-28T06:26:20.323Z,77.63
2018-01-28T06:28:50.224Z,69.10
2018-01-28T06:31:21.241Z,42.73
2018-01-28T06:33:51.300Z,69.97
2018-01-28T06:36:21.071Z,64.13
2018-01-28T06:38:51.138Z,52.73
2018-01-28T06:41:21.306Z,69.23
2018-01-28T06:43:51.422Z,35.90
2018-01-28T06:46:21.133Z,48.73
2018-01-28T06:48:52.504Z,44.47
2018-01-28T06:51:22.189Z,50.57
2018-01-28T06:53:52.512Z,54.70
2018-01-28T06:56:22.431Z,72.30
2018-01-28T06:58:52.958Z,52.13
2018-01-28T07:01:22.670Z,51.83
2018-01-28T07:03:52.380Z,59.60
2018-01-28T07:06:22.646Z,58.17
2018-01-28T07:08:53.226Z,61.23
2018-01-28T07:11:22.936Z,60.57
2018-01-28T07:13:52.851Z,60.80
2018-01-28T07:16:22.561Z,45.07
2018-01-28T07:18:52.533Z,69.10
2018-01-28T07:21:22.799Z,50.40
2018-01-28T07:23:52.712Z,58.43
2018-01-28T07:26:22.422Z,59.83
2018-01-28T07:28:52.135Z,57.23
2018-01-28T07:31:23.425Z,42.80
2018-01-28T07:33:53.189Z,49.50
2018-01-28T07:36:22.900Z,53.17
2018-01-28T07:38:54.259Z,54.97
2018-01-28T07:41:23.897Z,41.90
2018-01-28T07:43:54.025Z,57.80
2018-01-28T07:46:24.606Z,59.70
2018-01-28T07:48:54.722Z,51.57
2018-01-28T07:51:24.638Z,49.23
2018-01-28T07:53:54.708Z,68.00
2018-01-28T07:56:24.465Z,37.27
2018-01-28T07:58:54.175Z,44.37
2018-01-28T08:01:24.499Z,50.60
2018-01-28T08:03:56.003Z,65.30
2018-01-28T08:06:25.966Z,52.80
2018-01-28T08:09:02.516Z,38.93
2018-01-28T08:11:32.347Z,43.40
2018-01-28T08:14:02.262Z,56.03
2018-01-28T08:16:32.390Z,52.50
2018-01-28T08:19:02.091Z,37.50
2018-01-28T08:21:34.739Z,47.97
2018-01-28T08:24:04.706Z,50.17
2018-01-28T08:26:35.889Z,71.43
2018-01-28T08:29:06.255Z,55.40
2018-01-28T08:31:36.171Z,55.00
2018-01-28T08:34:07.516Z,43.97
2018-01-28T08:36:39.027Z,57.70
2018-01-28T08:39:09.341Z,74.93
2018-01-28T08:41:39.316Z,51.60
2018-01-28T08:44:10.865Z,49.57
2018-01-28T08:46:40.983Z,70.67
2018-01-28T08:49:10.693Z,46.17
2018-01-28T08:51:40.815Z,53.07
2018-01-28T08:54:10.516Z,46.40
2018-01-28T08:56:40.388Z,52.97
2018-01-28T08:59:10.346Z,46.20
2018-01-28T09:01:40.260Z,48.53
2018-01-28T09:04:10.175Z,56.70
2018-01-28T09:06:41.510Z,53.07
2018-01-28T09:09:11.237Z,56.83
2018-01-28T09:11:42.789Z,32.10
2018-01-28T09:14:12.727Z,54.47
2018-01-28T09:16:42.833Z,58.70
2018-01-28T09:19:12.731Z,49.60
2018-01-28T09:21:42.850Z,66.63
2018-01-28T09:24:12.723Z,46.37
2018-01-28T09:26:42.678Z,46.83
2018-01-28T09:29:13.988Z,47.13
2018-01-28T09:31:43.774Z,35.17
2018-01-28T09:34:13.868Z,52.70
2018-01-28T09:36:43.777Z,45.10
2018-01-28T09:39:13.479Z,43.30
2018-01-28T09:41:44.828Z,59.93
2018-01-28T09:44:15.209Z,35.07
2018-01-28T09:46:45.067Z,28.00
2018-01-28T09:49:14.775Z,41.63
2018-01-28T09:51:44.486Z,58.07
2018-01-28T09:54:14.399Z,40.53
2018-01-28T09:56:44.519Z,46.10
2018-01-28T09:59:14.660Z,59.73
2018-01-28T10:01:45.166Z,60.40
2018-01-28T10:04:15.492Z,44.33
2018-01-28T10:06:45.201Z,60.40
2018-01-28T10:09:16.547Z,52.57
2018-01-28T10:11:46.259Z,41.50
2018-01-28T10:14:15.974Z,51.70
2018-01-28T10:16:46.261Z,50.40
2018-01-28T10:19:15.960Z,49.23
2018-01-28T10:21:45.913Z,54.67
2018-01-28T10:24:15.796Z,59.07
2018-01-28T10:26:45.892Z,49.00
2018-01-28T10:29:15.607Z,54.33
2018-01-28T10:31:45.573Z,34.17
2018-01-28T10:34:16.100Z,52.43
2018-01-28T10:36:48.572Z,62.87
2018-01-28T10:39:18.590Z,34.30
2018-01-28T10:41:48.719Z,49.47
2018-01-28T10:44:20.212Z,54.13
2018-01-28T10:46:50.179Z,57.07
2018-01-28T10:49:20.093Z,39.07
2018-01-28T10:51:49.967Z,58.53
2018-01-28T10:54:19.723Z,46.87
2018-01-28T10:56:49.777Z,38.47
2018-01-28T10:59:19.544Z,50.27
2018-01-28T11:01:51.103Z,39.03
2018-01-28T11:04:22.445Z,40.70
2018-01-28T11:06:52.508Z,38.67
2018-01-28T11:09:22.231Z,37.27
2018-01-28T11:11:52.345Z,57.37
2018-01-28T11:14:22.252Z,53.03
2018-01-28T11:16:52.223Z,69.47
2018-01-28T11:19:23.167Z,46.27
2018-01-28T11:21:53.890Z,48.80
2018-01-28T11:24:23.806Z,40.07
2018-01-28T11:26:55.504Z,62.33
2018-01-28T11:29:25.492Z,47.57
2018-01-28T11:31:55.190Z,50.97
2018-01-28T11:34:26.689Z,49.67
2018-01-28T11:36:56.663Z,56.40
2018-01-28T11:39:26.398Z,42.93
2018-01-28T11:41:56.484Z,74.67
2018-01-28T11:44:27.834Z,268.13
2018-01-28T11:46:57.771Z,224.50
2018-01-28T11:49:27.865Z,71.30
2018-01-28T11:51:57.576Z,73.40
2018-01-28T11:54:28.980Z,63.03
2018-01-28T11:56:58.835Z,67.60
2018-01-28T11:59:28.545Z,50.43
2018-01-28T12:01:58.265Z,70.70
2018-01-28T12:04:27.965Z,61.73
2018-01-28T12:06:57.675Z,62.10
2018-01-28T12:09:29.226Z,64.40
2018-01-28T12:12:00.373Z,58.33
2018-01-28T12:14:30.113Z,60.63
2018-01-28T12:17:00.200Z,58.07
2018-01-28T12:19:30.935Z,66.60
2018-01-28T12:22:00.799Z,49.63
2018-01-28T12:24:30.560Z,49.73
2018-01-28T12:27:00.471Z,61.50
2018-01-28T12:29:30.596Z,63.17
2018-01-28T12:32:01.936Z,54.30
2018-01-28T12:34:31.851Z,56.70
2018-01-28T12:37:03.365Z,58.60
2018-01-28T12:39:33.112Z,46.90
2018-01-28T12:42:05.077Z,64.33
2018-01-28T12:44:34.990Z,48.40
2018-01-28T12:47:04.905Z,57.50
2018-01-28T12:49:34.819Z,54.43
2018-01-28T12:52:05.292Z,60.83
2018-01-28T12:54:35.206Z,50.77
2018-01-28T12:57:05.552Z,61.07
2018-01-28T12:59:35.296Z,48.97
2018-01-28T13:02:05.576Z,43.97
2018-01-28T13:04:35.534Z,62.27
2018-01-28T13:07:05.445Z,67.10
2018-01-28T13:09:35.158Z,50.90
2018-01-28T13:12:05.072Z,61.63
2018-01-28T13:14:36.419Z,63.33
2018-01-28T13:17:06.260Z,44.37
2018-01-28T13:19:36.863Z,70.97
2018-01-28T13:22:06.572Z,60.10
2018-01-28T13:24:36.486Z,74.83
2018-01-28T13:27:06.927Z,52.23
2018-01-28T13:29:37.748Z,50.03
2018-01-28T13:32:08.687Z,59.10
2018-01-28T13:34:38.671Z,51.63
2018-01-28T13:37:08.613Z,63.53
2018-01-28T13:39:38.647Z,60.07
2018-01-28T13:42:08.344Z,93.73
2018-01-28T13:44:39.696Z,88.30
2018-01-28T13:47:09.489Z,74.00
2018-01-28T13:49:39.930Z,55.57
2018-01-28T13:52:10.006Z,74.77
2018-01-28T13:54:40.531Z,68.87
2018-01-28T13:57:11.934Z,49.87
2018-01-28T13:59:43.333Z,50.70
2018-01-28T14:02:13.196Z,52.60
2018-01-28T14:04:43.260Z,69.13
2018-01-28T14:07:13.017Z,74.70
2018-01-28T14:09:43.705Z,67.57
2018-01-28T14:12:13.460Z,59.70
2018-01-28T14:14:44.920Z,55.23
2018-01-28T14:17:15.133Z,61.27
2018-01-28T14:19:45.457Z,68.70
2018-01-28T14:22:15.371Z,63.07
2018-01-28T14:24:46.256Z,47.40
2018-01-28T14:27:16.175Z,74.60
2018-01-28T14:29:46.065Z,68.37
2018-01-28T14:32:17.108Z,59.10
2018-01-28T14:34:47.136Z,69.73
2018-01-28T14:37:16.908Z,61.23
2018-01-28T14:39:47.022Z,50.30
2018-01-28T14:42:16.739Z,56.27
2018-01-28T14:44:46.675Z,46.60
2018-01-28T14:47:16.560Z,39.57
2018-01-28T14:49:46.449Z,53.07
2018-01-28T14:52:16.184Z,58.83
2018-01-28T14:54:47.536Z,138.97
2018-01-28T14:57:17.241Z,276.20
2018-01-28T14:59:47.306Z,393.37
2018-01-28T15:02:17.654Z,211.63
2018-01-28T15:04:47.395Z,147.23
2018-01-28T15:07:18.196Z,115.00
2018-01-28T15:09:48.042Z,59.70
2018-01-28T15:12:19.389Z,64.93
2018-01-28T15:14:49.304Z,59.87
2018-01-28T15:17:19.138Z,56.73
2018-01-28T15:19:49.750Z,47.33
2018-01-28T15:22:19.628Z,56.73
2018-01-28T15:24:49.895Z,64.60
2018-01-28T15:27:19.899Z,33.23
2018-01-28T15:29:49.814Z,35.27
2018-01-28T15:32:21.370Z,20.07
2018-01-28T15:34:51.418Z,22.17
2018-01-28T15:37:22.221Z,20.23
2018-01-28T15:39:52.558Z,17.60
2018-01-28T15:42:22.460Z,12.70
2018-01-28T15:44:52.375Z,9.17
2018-01-28T15:47:22.315Z,15.20
2018-01-28T15:49:53.336Z,9.93
2018-01-28T15:52:23.517Z,12.50
2018-01-28T15:54:53.409Z,15.17
2018-01-28T15:57:23.232Z,17.40
2018-01-28T15:59:53.451Z,18.93
2018-01-28T16:02:23.484Z,16.40
2018-01-28T16:04:53.700Z,8.93
2018-01-28T16:07:23.445Z,9.90
2018-01-28T16:09:54.579Z,6.63
2018-01-28T16:12:24.295Z,9.17
2018-01-28T16:14:55.206Z,7.23
2018-01-28T16:17:25.151Z,8.70
2018-01-28T16:19:55.269Z,5.07
2018-01-28T16:22:25.190Z,4.07
2018-01-28T16:24:54.893Z,5.80
2018-01-28T16:27:24.651Z,8.20
2018-01-28T16:29:54.540Z,4.07
2018-01-28T16:32:24.430Z,6.60
2018-01-28T16:34:54.138Z,8.63
2018-01-28T16:37:23.855Z,8.73
2018-01-28T16:39:53.776Z,4.73
2018-01-28T16:42:23.474Z,7.17
2018-01-28T16:44:54.819Z,2.23
2018-01-28T16:47:25.758Z,3.13
2018-01-28T16:49:56.287Z,2.60
2018-01-28T16:52:26.008Z,3.37
2018-01-28T16:54:55.657Z,5.60
2018-01-28T16:57:25.621Z,5.83
2018-01-28T16:59:55.533Z,2.73
2018-01-28T17:02:25.653Z,5.47
2018-01-28T17:04:55.773Z,2.30
2018-01-28T17:07:25.893Z,5.63
2018-01-28T17:09:55.607Z,2.83
2018-01-28T17:12:26.021Z,3.33
2018-01-28T17:14:56.043Z,3.10
2018-01-28T17:17:25.958Z,3.87
2018-01-28T17:19:55.673Z,2.73
2018-01-28T17:22:25.535Z,2.60
2018-01-28T17:24:55.495Z,5.20
2018-01-28T17:27:25.263Z,2.60
2018-01-28T17:29:55.265Z,3.17
2018-01-28T17:32:25.904Z,5.20
2018-01-28T17:34:56.383Z,3.10
2018-01-28T17:37:26.243Z,2.60
2018-01-28T17:39:56.200Z,7.73
2018-01-28T17:42:25.932Z,3.60
2018-01-28T17:44:55.901Z,4.10
2018-01-28T17:47:25.752Z,2.90
2018-01-28T17:49:55.606Z,4.80
2018-01-28T17:52:25.724Z,3.50
2018-01-28T17:54:55.901Z,4.43
2018-01-28T17:57:25.561Z,4.83
2018-01-28T17:59:55.328Z,4.00
2018-01-28T18:02:25.029Z,3.30
2018-01-28T18:04:55.111Z,4.17
2018-01-28T18:07:25.284Z,5.00
2018-01-28T18:09:55.183Z,4.07
2018-01-28T18:12:25.165Z,5.97
2018-01-28T18:14:55.013Z,4.30
2018-01-28T18:17:24.720Z,7.23
2018-01-28T18:19:54.400Z,5.40
2018-01-28T18:22:24.548Z,5.10
2018-01-28T18:24:54.483Z,5.50
2018-01-28T18:27:24.377Z,6.30
2018-01-28T18:29:54.292Z,6.10
2018-01-28T18:32:24.207Z,6.40
2018-01-28T18:34:54.536Z,8.07
2018-01-28T18:37:24.620Z,8.73
2018-01-28T18:39:54.769Z,7.47
2018-01-28T18:42:24.684Z,6.23
2018-01-28T18:45:02.585Z,6.77
2018-01-28T18:47:34.162Z,5.30
2018-01-28T18:50:04.469Z,6.73
2018-01-28T18:52:34.376Z,6.10
2018-01-28T18:55:04.535Z,5.63
2018-01-28T18:57:34.376Z,5.67
2018-01-28T19:00:04.435Z,6.53
2018-01-28T19:02:35.225Z,5.60
2018-01-28T19:05:05.170Z,10.10
2018-01-28T19:07:34.888Z,6.23
2018-01-28T19:10:04.806Z,7.67
2018-01-28T19:12:34.917Z,5.53
2018-01-28T19:15:04.788Z,11.53
2018-01-28T19:17:34.541Z,6.50
2018-01-28T19:20:04.300Z,7.27
2018-01-28T19:22:34.321Z,7.30
2018-01-28T19:25:04.447Z,6.53
2018-01-28T19:27:34.969Z,5.43
2018-01-28T19:30:04.892Z,5.90
2018-01-28T19:32:35.945Z,5.43
2018-01-28T19:35:06.768Z,12.00
2018-01-28T19:37:36.724Z,6.70
2018-01-28T19:40:07.458Z,6.27
2018-01-28T19:42:38.190Z,6.53
2018-01-28T19:45:08.660Z,6.50
2018-01-28T19:47:39.246Z,7.00
2018-01-28T19:53:41.549Z,8.07
2018-01-28T19:56:11.453Z,6.50
2018-01-28T19:58:41.670Z,5.90
2018-01-28T20:01:11.495Z,6.53
2018-01-28T20:03:41.619Z,8.07
2018-01-28T20:06:12.269Z,9.70
2018-01-28T20:08:43.073Z,11.13
2018-01-28T20:11:13.198Z,9.90
2018-01-28T20:13:43.730Z,5.13
2018-01-28T20:16:14.462Z,11.07
2018-01-28T20:18:44.397Z,7.47
2018-01-28T20:21:14.864Z,6.53
2018-01-28T20:23:44.608Z,17.33
2018-01-28T20:26:16.212Z,5.43
2018-01-28T20:28:46.075Z,18.57
2018-01-28T20:31:17.838Z,15.50
2018-01-28T20:33:47.952Z,16.13
2018-01-28T20:36:17.804Z,11.63
2018-01-28T20:38:48.597Z,13.07
2018-01-28T20:41:18.719Z,11.57
2018-01-28T20:43:48.584Z,16.60
2018-01-28T20:46:18.973Z,11.30
2018-01-28T20:48:48.837Z,11.77
2018-01-28T20:51:18.526Z,15.00
2018-01-28T20:53:48.912Z,8.83
2018-01-28T20:56:18.702Z,15.33
2018-01-28T20:58:48.751Z,21.80
2018-01-28T21:01:18.851Z,9.97
2018-01-28T21:03:48.758Z,20.90
2018-01-28T21:06:18.440Z,12.53
2018-01-28T21:08:48.805Z,14.50
2018-01-28T21:11:18.511Z,10.10
2018-01-28T21:13:48.384Z,14.63
2018-01-28T21:16:18.297Z,16.10
2018-01-28T21:18:48.607Z,19.67
2018-01-28T21:21:18.436Z,13.40
2018-01-28T21:23:48.491Z,14.90
2018-01-28T21:26:18.403Z,14.23
2018-01-28T21:28:48.317Z,11.17
2018-01-28T21:31:19.666Z,14.80
2018-01-28T21:33:49.784Z,20.93
2018-01-28T21:36:19.498Z,15.93
2018-01-28T21:38:50.023Z,23.00
2018-01-28T21:41:19.940Z,14.20
2018-01-28T21:43:49.675Z,18.30
2018-01-28T21:46:19.560Z,23.67
2018-01-28T21:48:49.271Z,20.23
2018-01-28T21:51:18.980Z,17.53
2018-01-28T21:53:49.865Z,22.27
2018-01-28T21:56:20.283Z,26.23
2018-01-28T21:58:49.951Z,28.63
2018-01-28T22:01:19.662Z,30.47
2018-01-28T22:03:49.583Z,22.23
2018-01-28T22:06:20.923Z,21.27
2018-01-28T22:08:50.840Z,24.70
2018-01-28T22:11:20.397Z,27.70
2018-01-28T22:13:50.255Z,32.77
2018-01-28T22:16:20.376Z,17.90
2018-01-28T22:18:50.543Z,26.47
2018-01-28T22:21:20.756Z,15.13
2018-01-28T22:23:51.150Z,22.60
2018-01-28T22:26:22.489Z,20.13
2018-01-28T22:28:52.280Z,14.17
2018-01-28T22:31:21.910Z,19.67
2018-01-28T22:33:52.028Z,27.17
2018-01-28T22:36:21.736Z,22.03
2018-01-28T22:38:52.060Z,34.43
2018-01-28T22:41:21.772Z,24.43
2018-01-28T22:43:52.095Z,31.23
2018-01-28T22:46:21.849Z,51.37
2018-01-28T22:48:52.084Z,23.60
2018-01-28T22:51:22.194Z,19.50
2018-01-28T22:53:52.161Z,17.30
2018-01-28T22:56:21.871Z,21.17
2018-01-28T22:58:51.992Z,14.20
2018-01-28T23:01:22.721Z,15.73
2018-01-28T23:03:52.640Z,14.20
2018-01-28T23:06:22.402Z,22.03
2018-01-28T23:08:52.261Z,13.00
2018-01-28T23:11:22.174Z,19.60
2018-01-28T23:13:52.189Z,18.07
2018-01-28T23:16:22.142Z,25.10
2018-01-28T23:18:52.943Z,15.30
2018-01-28T23:21:22.857Z,18.30
2018-01-28T23:23:52.776Z,23.37
2018-01-28T23:26:22.479Z,26.60
2018-01-28T23:28:52.744Z,12.53
2018-01-28T23:31:23.337Z,21.33
2018-01-28T23:33:53.247Z,15.67
2018-01-28T23:36:22.912Z,17.60
2018-01-28T23:38:52.666Z,21.60
2018-01-28T23:41:23.808Z,27.27
2018-01-28T23:43:53.711Z,23.00
2018-01-28T23:46:23.433Z,18.87
2018-01-28T23:48:54.779Z,12.77
2018-01-28T23:51:24.489Z,16.50
2018-01-28T23:53:54.551Z,17.80
2018-01-28T23:56:24.326Z,23.80
2018-01-28T23:58:54.037Z,19.73
